Time;durP1;ratioP1;P1;durP2;ratioP2;P2;SDS_P1;SDS_P2;PMS_P1;PMS_P2;Temp;Humidity;BMP_temperature;BMP_pressure;BME280_temperature;BME280_humidity;BME280_pressure;Samples;Min_cycle;Max_cycle;Signal;HPM_P1;HPM_P2
2022/03/07 00:00:41;;;;;;;4.53;4.13;;;;;;;;;;5032572;28;20243;-85
2022/03/07 00:03:08;;;;;;;4.47;3.83;;;;;;;;;;5033171;28;20207;-86
2022/03/07 00:05:35;;;;;;;4.10;3.70;;;;;;;;;;5032064;28;20234;-86
2022/03/07 00:08:02;;;;;;;4.40;4.10;;;;;;;;;;5032922;28;20226;-86
2022/03/07 00:10:31;;;;;;;3.83;3.53;;;;;;;;;;5032281;28;20754;-85
2022/03/07 00:12:59;;;;;;;5.90;4.13;;;;;;;;;;5032758;28;20207;-85
2022/03/07 00:15:26;;;;;;;4.77;4.23;;;;;;;;;;5032488;28;20237;-85
2022/03/07 00:17:54;;;;;;;4.60;4.20;;;;;;;;;;5033101;28;20567;-85
2022/03/07 00:20:21;;;;;;;5.73;4.30;;;;;;;;;;5032519;28;20246;-85
2022/03/07 00:22:49;;;;;;;4.30;3.90;;;;;;;;;;5042565;28;20268;-86
2022/03/07 00:25:17;;;;;;;5.60;4.37;;;;;;;;;;5043740;28;20655;-86
2022/03/07 00:27:44;;;;;;;5.73;4.30;;;;;;;;;;5043827;28;20226;-86
2022/03/07 00:30:12;;;;;;;4.17;3.77;;;;;;;;;;5032444;28;20292;-85
2022/03/07 00:32:39;;;;;;;4.63;4.23;;;;;;;;;;5032482;28;20204;-85
2022/03/07 00:35:08;;;;;;;3.67;3.47;;;;;;;;;;5031904;28;20234;-85
2022/03/07 00:37:35;;;;;;;5.87;4.13;;;;;;;;;;5032464;28;20667;-85
2022/03/07 00:40:02;;;;;;;4.83;3.80;;;;;;;;;;5032045;28;20586;-85
2022/03/07 00:42:29;;;;;;;4.80;3.90;;;;;;;;;;5032368;28;20237;-85
2022/03/07 00:44:56;;;;;;;4.43;3.77;;;;;;;;;;5031919;28;20260;-85
2022/03/07 00:47:25;;;;;;;4.77;4.37;;;;;;;;;;5032322;28;20199;-85
2022/03/07 00:49:52;;;;;;;4.57;3.90;;;;;;;;;;5031834;28;20286;-85
2022/03/07 00:52:20;;;;;;;4.30;3.90;;;;;;;;;;5032305;28;20204;-85
2022/03/07 00:54:47;;;;;;;4.33;3.93;;;;;;;;;;5031917;28;20209;-85
2022/03/07 00:57:14;;;;;;;4.90;4.40;;;;;;;;;;5032428;28;20207;-85
2022/03/07 00:59:41;;;;;;;4.50;4.10;;;;;;;;;;5032149;28;20206;-85
2022/03/07 01:02:10;;;;;;;4.00;3.60;;;;;;;;;;5032112;28;20230;-85
2022/03/07 01:04:37;;;;;;;5.37;4.13;;;;;;;;;;5032115;28;20576;-86
2022/03/07 01:07:04;;;;;;;4.00;3.70;;;;;;;;;;5031708;28;20238;-85
2022/03/07 01:09:32;;;;;;;4.43;4.03;;;;;;;;;;5032409;28;20226;-85
2022/03/07 01:11:59;;;;;;;4.30;3.90;;;;;;;;;;5031444;28;20245;-85
2022/03/07 01:14:26;;;;;;;4.37;3.97;;;;;;;;;;5032338;28;20214;-85
2022/03/07 01:16:54;;;;;;;4.40;4.00;;;;;;;;;;5031742;28;20288;-86
2022/03/07 01:19:21;;;;;;;4.27;3.87;;;;;;;;;;5032295;28;20206;-85
2022/03/07 01:21:49;;;;;;;5.47;4.27;;;;;;;;;;5031321;28;20300;-85
2022/03/07 01:24:16;;;;;;;4.27;3.97;;;;;;;;;;5032081;28;20687;-85
2022/03/07 01:26:45;;;;;;;4.43;4.03;;;;;;;;;;5031497;28;20238;-85
2022/03/07 01:29:12;;;;;;;5.13;3.93;;;;;;;;;;5032070;28;20227;-85
2022/03/07 01:31:39;;;;;;;4.77;4.37;;;;;;;;;;5031529;28;20642;-85
2022/03/07 01:34:06;;;;;;;3.90;3.60;;;;;;;;;;5031974;28;20198;-85
2022/03/07 01:36:35;;;;;;;6.67;4.20;;;;;;;;;;5034528;28;20223;-85
2022/03/07 01:39:02;;;;;;;4.37;3.97;;;;;;;;;;5035803;28;20240;-85
2022/03/07 01:41:29;;;;;;;4.93;4.17;;;;;;;;;;5035112;28;20235;-85
2022/03/07 01:43:57;;;;;;;4.67;4.20;;;;;;;;;;5035454;28;20199;-86
2022/03/07 01:46:24;;;;;;;3.93;3.63;;;;;;;;;;5035162;28;20292;-85
2022/03/07 01:48:51;;;;;;;6.77;4.43;;;;;;;;;;5035519;28;20235;-85
2022/03/07 01:51:19;;;;;;;4.83;4.40;;;;;;;;;;5034390;28;20587;-85
2022/03/07 01:53:46;;;;;;;5.60;4.50;;;;;;;;;;5035405;28;20571;-85
2022/03/07 01:56:13;;;;;;;5.07;4.37;;;;;;;;;;5034585;28;20246;-85
2022/03/07 01:58:40;;;;;;;4.63;4.17;;;;;;;;;;5035411;28;20222;-85
2022/03/07 02:01:08;;;;;;;4.37;4.00;;;;;;;;;;5034816;28;20293;-85
2022/03/07 02:03:35;;;;;;;3.83;3.60;;;;;;;;;;5023738;28;20211;-86
2022/03/07 02:06:02;;;;;;;3.90;3.60;;;;;;;;;;5034504;28;20234;-85
2022/03/07 02:08:30;;;;;;;6.10;4.10;;;;;;;;;;5035340;28;20226;-84
2022/03/07 02:10:57;;;;;;;4.00;3.70;;;;;;;;;;5035055;28;20239;-86
2022/03/07 02:13:24;;;;;;;4.33;4.03;;;;;;;;;;5040837;28;20207;-85
2022/03/07 02:15:54;;;;;;;4.03;3.73;;;;;;;;;;5036739;28;20238;-85
2022/03/07 02:18:23;;;;;;;4.13;3.73;;;;;;;;;;5035240;28;20203;-85
2022/03/07 02:20:53;;;;;;;4.10;3.80;;;;;;;;;;5042086;28;20273;-85
2022/03/07 02:23:21;;;;;;;7.77;4.07;;;;;;;;;;5034925;28;20209;-85
2022/03/07 02:25:48;;;;;;;4.67;3.93;;;;;;;;;;5035510;28;20237;-85
2022/03/07 02:28:16;;;;;;;4.33;4.03;;;;;;;;;;5035752;28;20223;-85
2022/03/07 02:30:43;;;;;;;4.53;4.10;;;;;;;;;;5034207;28;20265;-85
2022/03/07 02:33:12;;;;;;;5.00;4.50;;;;;;;;;;5034487;28;20554;-85
2022/03/07 02:35:39;;;;;;;5.27;4.43;;;;;;;;;;5034253;28;20234;-85
2022/03/07 02:38:12;;;;;;;4.80;4.40;;;;;;;;;;5035041;28;20231;-85
2022/03/07 02:40:40;;;;;;;5.10;4.60;;;;;;;;;;5035713;28;20238;-84
2022/03/07 02:43:07;;;;;;;5.43;4.90;;;;;;;;;;5037793;28;20864;-85
2022/03/07 02:45:34;;;;;;;6.47;5.20;;;;;;;;;;5035318;28;20245;-85
2022/03/07 02:48:01;;;;;;;5.37;4.80;;;;;;;;;;5035375;28;20210;-85
2022/03/07 02:50:29;;;;;;;5.07;4.57;;;;;;;;;;5034791;28;20292;-85
2022/03/07 02:52:57;;;;;;;5.37;4.87;;;;;;;;;;5034311;28;20211;-85
2022/03/07 02:55:24;;;;;;;5.33;4.80;;;;;;;;;;5033680;28;20234;-86
2022/03/07 02:57:53;;;;;;;5.63;5.00;;;;;;;;;;5034080;28;20210;-85
2022/03/07 03:00:20;;;;;;;6.03;5.40;;;;;;;;;;5018252;28;20233;-85
2022/03/07 03:02:47;;;;;;;5.93;5.33;;;;;;;;;;5034754;28;20229;-85
2022/03/07 03:05:14;;;;;;;5.80;5.10;;;;;;;;;;5034603;28;20226;-85
2022/03/07 03:07:41;;;;;;;7.47;5.53;;;;;;;;;;5035389;28;20209;-85
2022/03/07 03:10:08;;;;;;;6.07;5.57;;;;;;;;;;5054540;28;20218;-87
2022/03/07 03:12:35;;;;;;;5.70;5.20;;;;;;;;;;5055264;28;20205;-86
2022/03/07 03:15:04;;;;;;;6.83;6.13;;;;;;;;;;5037032;28;20242;-85
2022/03/07 03:17:31;;;;;;;7.07;6.07;;;;;;;;;;5035634;28;20690;-86
2022/03/07 03:19:58;;;;;;;7.00;6.20;;;;;;;;;;5034717;28;20202;-85
2022/03/07 03:22:25;;;;;;;7.07;6.37;;;;;;;;;;5034376;28;20207;-85
2022/03/07 03:24:52;;;;;;;7.47;6.77;;;;;;;;;;5033352;28;20206;-85
2022/03/07 03:27:19;;;;;;;8.50;6.93;;;;;;;;;;5034017;28;20195;-85
2022/03/07 03:29:46;;;;;;;7.77;6.97;;;;;;;;;;5033555;28;20229;-86
2022/03/07 03:32:15;;;;;;;6.77;5.60;;;;;;;;;;5033682;28;20202;-85
2022/03/07 03:34:42;;;;;;;8.13;7.07;;;;;;;;;;5033433;28;20253;-85
2022/03/07 03:37:09;;;;;;;12.20;7.17;;;;;;;;;;5033619;28;20554;-85
2022/03/07 03:39:37;;;;;;;8.37;6.77;;;;;;;;;;5033729;28;20198;-85
2022/03/07 03:42:04;;;;;;;8.80;7.10;;;;;;;;;;5032650;28;20725;-85
2022/03/07 03:44:31;;;;;;;8.80;7.70;;;;;;;;;;5033365;28;20214;-85
2022/03/07 03:46:58;;;;;;;8.53;7.20;;;;;;;;;;5032602;28;20230;-85
2022/03/07 03:49:29;;;;;;;9.00;7.63;;;;;;;;;;5033046;28;20313;-84
2022/03/07 03:51:56;;;;;;;10.13;8.20;;;;;;;;;;5032366;28;20296;-86
2022/03/07 03:54:23;;;;;;;9.73;7.43;;;;;;;;;;5032885;28;20204;-85
2022/03/07 03:56:50;;;;;;;8.27;7.37;;;;;;;;;;5032470;28;20659;-85
2022/03/07 03:59:17;;;;;;;9.00;6.80;;;;;;;;;;5033052;28;20207;-85
2022/03/07 04:01:45;;;;;;;8.07;6.90;;;;;;;;;;5032427;28;20250;-85
2022/03/07 04:04:12;;;;;;;8.87;6.97;;;;;;;;;;5032962;28;20210;-86
2022/03/07 04:06:41;;;;;;;9.17;7.43;;;;;;;;;;5033132;28;20642;-86
2022/03/07 04:09:08;;;;;;;8.17;7.37;;;;;;;;;;5034251;28;20778;-85
2022/03/07 04:11:35;;;;;;;8.00;7.17;;;;;;;;;;5032726;28;20650;-85
2022/03/07 04:14:03;;;;;;;9.60;7.47;;;;;;;;;;5033759;28;20207;-85
2022/03/07 04:16:30;;;;;;;9.73;6.47;;;;;;;;;;5033097;28;20258;-85
2022/03/07 04:18:57;;;;;;;8.20;7.13;;;;;;;;;;5033440;28;20691;-85
2022/03/07 04:21:26;;;;;;;8.93;7.43;;;;;;;;;;5032417;28;20677;-85
2022/03/07 04:23:55;;;;;;;7.77;6.97;;;;;;;;;;5032440;28;20221;-84
2022/03/07 04:26:22;;;;;;;8.77;6.90;;;;;;;;;;5032167;28;20245;-85
2022/03/07 04:28:49;;;;;;;9.80;6.97;;;;;;;;;;5032859;28;20233;-87
2022/03/07 04:31:16;;;;;;;9.67;7.47;;;;;;;;;;5032079;28;20235;-86
2022/03/07 04:33:43;;;;;;;9.37;6.57;;;;;;;;;;5041580;28;20237;-87
2022/03/07 04:36:10;;;;;;;8.00;7.17;;;;;;;;;;5039840;28;20257;-86
2022/03/07 04:38:37;;;;;;;10.27;7.27;;;;;;;;;;5038117;28;20237;-86
2022/03/07 04:41:06;;;;;;;10.23;7.83;;;;;;;;;;5035305;28;20257;-85
2022/03/07 04:43:33;;;;;;;7.57;6.63;;;;;;;;;;5032920;28;20213;-85
2022/03/07 04:46:00;;;;;;;8.20;7.13;;;;;;;;;;5032130;28;20242;-85
2022/03/07 04:48:27;;;;;;;7.40;6.70;;;;;;;;;;5032355;28;20271;-86
2022/03/07 04:50:55;;;;;;;11.13;7.43;;;;;;;;;;5032348;28;20248;-85
2022/03/07 04:53:22;;;;;;;7.63;6.80;;;;;;;;;;5032504;28;20202;-86
2022/03/07 04:55:49;;;;;;;7.73;6.93;;;;;;;;;;5032508;28;20234;-86
2022/03/07 04:58:17;;;;;;;9.23;7.90;;;;;;;;;;5032716;28;20203;-86
2022/03/07 05:00:44;;;;;;;7.80;7.00;;;;;;;;;;5031918;28;20246;-85
2022/03/07 05:03:12;;;;;;;8.93;7.30;;;;;;;;;;5032315;28;20386;-86
2022/03/07 05:05:39;;;;;;;9.13;7.53;;;;;;;;;;5027688;28;20320;-85
2022/03/07 05:08:06;;;;;;;7.27;6.57;;;;;;;;;;5031600;28;20218;-85
2022/03/07 05:10:33;;;;;;;10.33;7.70;;;;;;;;;;5034778;28;20237;-85
2022/03/07 05:13:00;;;;;;;9.10;7.37;;;;;;;;;;5035197;28;20218;-85
2022/03/07 05:15:29;;;;;;;8.80;7.60;;;;;;;;;;5034951;28;20241;-85
2022/03/07 05:17:56;;;;;;;9.17;7.63;;;;;;;;;;5035347;28;20312;-85
2022/03/07 05:20:24;;;;;;;8.77;7.70;;;;;;;;;;5034986;28;20234;-85
2022/03/07 05:22:52;;;;;;;8.37;7.17;;;;;;;;;;5024893;28;20220;-85
2022/03/07 05:25:19;;;;;;;10.30;8.90;;;;;;;;;;5015920;28;20238;-85
2022/03/07 05:27:47;;;;;;;8.93;7.93;;;;;;;;;;5016357;28;20214;-85
2022/03/07 05:30:15;;;;;;;9.77;7.90;;;;;;;;;;5016044;28;20334;-84
2022/03/07 05:32:43;;;;;;;10.27;7.77;;;;;;;;;;5016130;28;20595;-84
2022/03/07 05:35:10;;;;;;;9.53;7.83;;;;;;;;;;5016311;28;20296;-84
2022/03/07 05:37:37;;;;;;;11.33;8.43;;;;;;;;;;5016118;28;20210;-84
2022/03/07 05:40:06;;;;;;;8.77;7.77;;;;;;;;;;5021440;28;20244;-85
2022/03/07 05:42:33;;;;;;;10.83;8.33;;;;;;;;;;5035746;28;20610;-85
2022/03/07 05:45:00;;;;;;;11.53;8.10;;;;;;;;;;5041661;28;20637;-86
2022/03/07 05:47:27;;;;;;;10.20;7.90;;;;;;;;;;5036376;28;20272;-86
2022/03/07 05:49:56;;;;;;;12.07;8.73;;;;;;;;;;5028561;28;20234;-87
2022/03/07 05:52:23;;;;;;;11.73;8.67;;;;;;;;;;5034935;28;20211;-86
2022/03/07 05:54:51;;;;;;;9.87;8.33;;;;;;;;;;5034339;28;20560;-86
2022/03/07 05:57:18;;;;;;;9.70;8.30;;;;;;;;;;5024982;28;20194;-86
2022/03/07 05:59:45;;;;;;;12.27;8.33;;;;;;;;;;5035439;28;20564;-86
2022/03/07 06:02:12;;;;;;;10.17;8.23;;;;;;;;;;5035178;28;20230;-86
2022/03/07 06:04:39;;;;;;;10.10;8.13;;;;;;;;;;5035789;28;20202;-86
2022/03/07 06:07:08;;;;;;;9.83;8.60;;;;;;;;;;5029649;28;20230;-86
2022/03/07 06:09:35;;;;;;;10.47;8.80;;;;;;;;;;5026265;28;20234;-86
2022/03/07 06:12:03;;;;;;;9.40;8.10;;;;;;;;;;5015006;28;20238;-85
2022/03/07 06:14:30;;;;;;;11.53;7.93;;;;;;;;;;5026515;28;20252;-85
2022/03/07 06:16:57;;;;;;;10.87;8.30;;;;;;;;;;5034847;28;20238;-84
2022/03/07 06:19:24;;;;;;;8.50;7.53;;;;;;;;;;5036632;28;20206;-87
2022/03/07 06:21:51;;;;;;;8.33;7.50;;;;;;;;;;5021270;28;20264;-86
2022/03/07 06:24:20;;;;;;;8.27;7.57;;;;;;;;;;5030452;28;20249;-86
2022/03/07 06:26:47;;;;;;;8.30;7.40;;;;;;;;;;5031817;28;20233;-87
2022/03/07 06:29:14;;;;;;;7.50;6.77;;;;;;;;;;5022690;28;20213;-88
2022/03/07 06:31:41;;;;;;;10.77;7.93;;;;;;;;;;5025109;28;20227;-87
2022/03/07 06:34:08;;;;;;;10.20;6.93;;;;;;;;;;5035168;28;20675;-85
2022/03/07 06:36:35;;;;;;;12.57;7.20;;;;;;;;;;5020879;28;20231;-85
2022/03/07 06:39:02;;;;;;;13.20;7.33;;;;;;;;;;5014190;28;20199;-86
2022/03/07 06:41:31;;;;;;;8.93;7.20;;;;;;;;;;5013205;28;20339;-85
2022/03/07 06:43:59;;;;;;;9.23;7.20;;;;;;;;;;5013765;28;20206;-86
2022/03/07 06:46:28;;;;;;;8.97;7.33;;;;;;;;;;5013196;28;20796;-85
2022/03/07 06:48:55;;;;;;;8.63;7.33;;;;;;;;;;5014632;28;20195;-85
2022/03/07 06:51:23;;;;;;;8.53;6.63;;;;;;;;;;5013868;28;20703;-85
2022/03/07 06:53:50;;;;;;;10.03;7.30;;;;;;;;;;5015946;28;20230;-85
2022/03/07 06:56:17;;;;;;;7.47;6.70;;;;;;;;;;5014546;28;20238;-85
2022/03/07 06:58:46;;;;;;;6.17;5.57;;;;;;;;;;5014606;28;20238;-85
2022/03/07 07:01:13;;;;;;;7.90;6.90;;;;;;;;;;5014008;28;20274;-85
2022/03/07 07:03:40;;;;;;;7.40;6.40;;;;;;;;;;5014725;28;20547;-85
2022/03/07 07:06:09;;;;;;;7.83;6.43;;;;;;;;;;5021332;28;20236;-86
2022/03/07 07:08:36;;;;;;;8.03;6.30;;;;;;;;;;5020639;28;20281;-85
2022/03/07 07:11:03;;;;;;;6.23;5.50;;;;;;;;;;5013296;28;20241;-85
2022/03/07 07:13:31;;;;;;;8.77;7.03;;;;;;;;;;5014109;28;20214;-85
2022/03/07 07:15:59;;;;;;;7.13;6.43;;;;;;;;;;5013654;28;20246;-85
2022/03/07 07:18:26;;;;;;;8.43;5.63;;;;;;;;;;5014266;28;20213;-85
2022/03/07 07:20:53;;;;;;;8.03;6.53;;;;;;;;;;5013432;28;20249;-85
2022/03/07 07:23:21;;;;;;;7.40;6.60;;;;;;;;;;5015085;28;20211;-85
2022/03/07 07:25:48;;;;;;;5.77;5.27;;;;;;;;;;5014054;28;20293;-85
2022/03/07 07:28:15;;;;;;;6.47;5.87;;;;;;;;;;5014362;28;20220;-85
2022/03/07 07:30:44;;;;;;;5.90;5.40;;;;;;;;;;5027233;28;20263;-85
2022/03/07 07:33:13;;;;;;;6.20;5.37;;;;;;;;;;5032493;28;20213;-85
2022/03/07 07:35:40;;;;;;;6.07;5.43;;;;;;;;;;5033251;28;20234;-85
2022/03/07 07:38:08;;;;;;;5.67;5.23;;;;;;;;;;5033682;28;20211;-85
2022/03/07 07:40:35;;;;;;;5.50;5.00;;;;;;;;;;5033215;28;20295;-85
2022/03/07 07:43:02;;;;;;;5.93;5.30;;;;;;;;;;5033349;28;20273;-86
2022/03/07 07:45:29;;;;;;;5.63;5.10;;;;;;;;;;5033108;28;20239;-85
2022/03/07 07:47:58;;;;;;;5.63;5.13;;;;;;;;;;5033139;28;20206;-85
2022/03/07 07:50:26;;;;;;;5.47;4.73;;;;;;;;;;5033361;28;20603;-85
2022/03/07 07:52:54;;;;;;;5.63;5.13;;;;;;;;;;5033928;28;20210;-85
2022/03/07 07:55:21;;;;;;;6.07;5.50;;;;;;;;;;5036648;28;20254;-85
2022/03/07 07:57:48;;;;;;;5.97;5.17;;;;;;;;;;5037855;28;20214;-85
2022/03/07 08:00:19;;;;;;;5.43;4.93;;;;;;;;;;5026590;28;20239;-85
2022/03/07 08:02:47;;;;;;;6.90;5.50;;;;;;;;;;5024675;28;20237;-84
2022/03/07 08:05:14;;;;;;;5.07;4.67;;;;;;;;;;5015404;28;20730;-85
2022/03/07 08:07:42;;;;;;;5.97;5.27;;;;;;;;;;5014035;28;20249;-86
2022/03/07 08:10:11;;;;;;;7.00;5.20;;;;;;;;;;5030789;28;20287;-86
2022/03/07 08:12:38;;;;;;;4.80;4.30;;;;;;;;;;5036941;28;20217;-86
2022/03/07 08:15:09;;;;;;;7.23;5.67;;;;;;;;;;5023034;28;20241;-86
2022/03/07 08:17:36;;;;;;;5.93;5.27;;;;;;;;;;5036379;28;20202;-86
2022/03/07 08:20:05;;;;;;;7.47;5.10;;;;;;;;;;5029062;28;20769;-86
2022/03/07 08:22:32;;;;;;;5.60;5.10;;;;;;;;;;5019603;28;20205;-86
2022/03/07 08:25:03;;;;;;;5.37;4.87;;;;;;;;;;5036819;28;20592;-86
2022/03/07 08:27:32;;;;;;;6.00;4.80;;;;;;;;;;5035992;28;20207;-85
2022/03/07 08:29:59;;;;;;;4.07;3.77;;;;;;;;;;5034603;28;22334;-85
2022/03/07 08:32:26;;;;;;;9.07;5.00;;;;;;;;;;5036612;28;20207;-85
2022/03/07 08:34:55;;;;;;;4.97;4.47;;;;;;;;;;5032545;28;20197;-85
2022/03/07 08:37:22;;;;;;;5.27;4.87;;;;;;;;;;5032060;28;20211;-85
2022/03/07 08:39:49;;;;;;;5.70;4.80;;;;;;;;;;5031894;28;20667;-85
2022/03/07 08:42:19;;;;;;;5.63;5.13;;;;;;;;;;5031246;28;20206;-85
2022/03/07 08:44:46;;;;;;;5.20;4.70;;;;;;;;;;5017980;28;20202;-85
2022/03/07 08:47:13;;;;;;;5.77;5.27;;;;;;;;;;5014528;28;20207;-84
2022/03/07 08:49:40;;;;;;;5.10;4.70;;;;;;;;;;5014652;28;20616;-85
2022/03/07 08:52:08;;;;;;;5.30;4.83;;;;;;;;;;5013543;28;20235;-85
2022/03/07 08:54:35;;;;;;;5.40;5.00;;;;;;;;;;5013688;28;20214;-84
2022/03/07 08:57:02;;;;;;;5.57;4.97;;;;;;;;;;5012043;28;20239;-85
2022/03/07 08:59:30;;;;;;;6.40;5.10;;;;;;;;;;5011925;28;20211;-85
2022/03/07 09:01:57;;;;;;;5.47;4.97;;;;;;;;;;5025954;28;20231;-85
2022/03/07 09:04:25;;;;;;;4.47;4.10;;;;;;;;;;5024089;28;20566;-85
2022/03/07 09:06:52;;;;;;;5.27;4.80;;;;;;;;;;5011885;28;20711;-85
2022/03/07 09:09:19;;;;;;;5.40;4.80;;;;;;;;;;5019803;28;20668;-84
2022/03/07 09:11:50;;;;;;;4.93;4.50;;;;;;;;;;5028213;28;20238;-85
2022/03/07 09:14:17;;;;;;;5.50;4.83;;;;;;;;;;5024951;28;20203;-85
2022/03/07 09:16:46;;;;;;;4.37;4.07;;;;;;;;;;5017259;28;20254;-85
2022/03/07 09:19:13;;;;;;;4.80;4.40;;;;;;;;;;5013046;28;20571;-85
2022/03/07 09:21:40;;;;;;;5.10;4.70;;;;;;;;;;5016788;28;20238;-85
2022/03/07 09:24:07;;;;;;;5.27;4.77;;;;;;;;;;5022947;28;20207;-85
2022/03/07 09:26:34;;;;;;;4.77;4.30;;;;;;;;;;5017468;28;20251;-85
2022/03/07 09:29:02;;;;;;;4.80;4.40;;;;;;;;;;5024478;28;20203;-85
2022/03/07 09:31:29;;;;;;;5.10;4.67;;;;;;;;;;5012379;28;20235;-85
2022/03/07 09:33:57;;;;;;;5.23;4.50;;;;;;;;;;5012836;28;20213;-86
2022/03/07 09:36:25;;;;;;;7.07;4.93;;;;;;;;;;5012561;28;20235;-85
2022/03/07 09:38:52;;;;;;;6.10;5.00;;;;;;;;;;5013563;28;20213;-86
2022/03/07 09:41:20;;;;;;;6.07;5.20;;;;;;;;;;5012374;28;20234;-86
2022/03/07 09:43:47;;;;;;;4.97;4.57;;;;;;;;;;5013012;28;20204;-85
2022/03/07 09:46:15;;;;;;;5.57;5.07;;;;;;;;;;5013110;28;20261;-85
2022/03/07 09:48:42;;;;;;;5.13;4.73;;;;;;;;;;5014019;28;20223;-85
2022/03/07 09:51:11;;;;;;;5.53;4.90;;;;;;;;;;5012547;28;20238;-85
2022/03/07 09:53:38;;;;;;;8.03;4.73;;;;;;;;;;5012818;28;20207;-85
2022/03/07 09:56:05;;;;;;;9.57;4.67;;;;;;;;;;5016106;28;20229;-86
2022/03/07 09:58:33;;;;;;;4.93;4.43;;;;;;;;;;5026226;28;20200;-85
2022/03/07 10:01:07;;;;;;;6.20;3.67;;;;;;;;;;5022473;28;20235;-85
2022/03/07 10:03:34;;;;;;;4.57;4.17;;;;;;;;;;5018806;28;20257;-86
2022/03/07 10:06:02;;;;;;;4.67;4.27;;;;;;;;;;5024117;28;20237;-85
2022/03/07 10:08:30;;;;;;;5.87;4.73;;;;;;;;;;5036311;28;20626;-86
2022/03/07 10:10:58;;;;;;;4.97;4.50;;;;;;;;;;5038454;28;20230;-86
2022/03/07 10:13:26;;;;;;;4.87;4.37;;;;;;;;;;5042514;28;20686;-86
2022/03/07 10:15:57;;;;;;;8.07;4.30;;;;;;;;;;5041755;28;20235;-86
2022/03/07 10:18:25;;;;;;;4.97;4.47;;;;;;;;;;5035526;28;20711;-88
2022/03/07 10:20:53;;;;;;;5.97;4.17;;;;;;;;;;5029725;28;20242;-85
2022/03/07 10:23:20;;;;;;;4.83;4.37;;;;;;;;;;5014657;28;20238;-85
2022/03/07 10:25:48;;;;;;;4.80;4.30;;;;;;;;;;5021390;28;20604;-86
2022/03/07 10:28:15;;;;;;;4.73;4.00;;;;;;;;;;5032235;28;20211;-87
2022/03/07 10:30:42;;;;;;;5.10;4.70;;;;;;;;;;5040210;28;20243;-86
2022/03/07 10:33:10;;;;;;;4.57;4.17;;;;;;;;;;5043127;28;20213;-86
2022/03/07 10:35:38;;;;;;;5.27;4.07;;;;;;;;;;5045551;28;20242;-87
2022/03/07 10:38:07;;;;;;;5.03;4.47;;;;;;;;;;5046419;28;20211;-85
2022/03/07 10:40:35;;;;;;;4.60;4.20;;;;;;;;;;5027442;28;20231;-86
2022/03/07 10:43:04;;;;;;;5.03;4.60;;;;;;;;;;5036198;28;20191;-86
2022/03/07 10:45:32;;;;;;;8.03;4.13;;;;;;;;;;5037766;28;20230;-85
2022/03/07 10:47:59;;;;;;;4.93;4.37;;;;;;;;;;5039818;28;20211;-86
2022/03/07 10:50:27;;;;;;;6.83;4.10;;;;;;;;;;5039377;28;20605;-85
2022/03/07 10:52:59;;;;;;;4.37;3.97;;;;;;;;;;5041360;28;20265;-88
2022/03/07 10:55:27;;;;;;;4.77;4.30;;;;;;;;;;5035620;28;20234;-88
2022/03/07 10:58:05;;;;;;;4.77;4.30;;;;;;;;;;5049530;28;20214;-87
2022/03/07 11:00:33;;;;;;;4.73;4.33;;;;;;;;;;5048883;28;20273;-86
2022/03/07 11:03:01;;;;;;;7.07;4.87;;;;;;;;;;5049403;28;20190;-88
2022/03/07 11:05:28;;;;;;;7.27;4.07;;;;;;;;;;5045259;28;20241;-85
2022/03/07 11:07:55;;;;;;;5.93;4.33;;;;;;;;;;5050775;28;20210;-87
2022/03/07 11:10:22;;;;;;;5.47;4.33;;;;;;;;;;5042766;28;20959;-88
2022/03/07 11:12:50;;;;;;;5.93;4.23;;;;;;;;;;5039183;28;20707;-89
2022/03/07 11:15:18;;;;;;;6.47;4.20;;;;;;;;;;5037670;28;20226;-88
2022/03/07 11:17:48;;;;;;;4.80;4.33;;;;;;;;;;5041070;28;20203;-87
2022/03/07 11:20:16;;;;;;;4.27;3.97;;;;;;;;;;5041108;28;20241;-87
2022/03/07 11:22:43;;;;;;;4.50;4.10;;;;;;;;;;5046007;28;20210;-87
2022/03/07 11:25:15;;;;;;;5.07;4.30;;;;;;;;;;5046030;28;20230;-87
2022/03/07 11:27:42;;;;;;;4.70;4.20;;;;;;;;;;5045912;28;20703;-83
2022/03/07 11:30:16;;;;;;;5.53;4.20;;;;;;;;;;5038163;28;20692;-86
2022/03/07 11:32:43;;;;;;;4.37;3.97;;;;;;;;;;5034446;28;20284;-85
2022/03/07 11:35:11;;;;;;;4.97;4.20;;;;;;;;;;5035325;28;20237;-85
2022/03/07 11:37:39;;;;;;;7.30;4.77;;;;;;;;;;5037732;28;20214;-85
2022/03/07 11:40:17;;;;;;;4.73;4.30;;;;;;;;;;5032834;28;20312;-86
2022/03/07 11:42:44;;;;;;;4.87;4.30;;;;;;;;;;5025592;28;20695;-86
2022/03/07 11:45:16;;;;;;;4.80;4.40;;;;;;;;;;5013458;28;20238;-86
2022/03/07 11:47:43;;;;;;;5.00;4.50;;;;;;;;;;5030918;28;20221;-87
2022/03/07 11:50:12;;;;;;;4.10;3.70;;;;;;;;;;5033530;28;20234;-86
2022/03/07 11:52:39;;;;;;;4.70;4.00;;;;;;;;;;5034685;28;20227;-85
2022/03/07 11:55:12;;;;;;;4.47;4.07;;;;;;;;;;5036780;28;20238;-84
2022/03/07 11:57:41;;;;;;;4.80;4.40;;;;;;;;;;5033705;28;20245;-86
2022/03/07 12:00:12;;;;;;;4.43;4.03;;;;;;;;;;5033148;28;20238;-84
2022/03/07 12:02:40;;;;;;;4.63;4.10;;;;;;;;;;5033978;28;20202;-85
2022/03/07 12:05:07;;;;;;;3.97;3.67;;;;;;;;;;5033915;28;20268;-85
2022/03/07 12:07:36;;;;;;;4.10;3.80;;;;;;;;;;5025526;28;20207;-85
2022/03/07 12:10:07;;;;;;;6.23;4.10;;;;;;;;;;5031877;28;20238;-86
2022/03/07 12:12:34;;;;;;;3.87;3.57;;;;;;;;;;5032214;28;20730;-86
2022/03/07 12:15:07;;;;;;;4.10;3.60;;;;;;;;;;5032666;28;20237;-86
2022/03/07 12:17:34;;;;;;;4.27;3.87;;;;;;;;;;5026228;28;20290;-86
2022/03/07 12:20:02;;;;;;;5.27;3.47;;;;;;;;;;5032831;28;20682;-87
2022/03/07 12:22:29;;;;;;;4.10;3.60;;;;;;;;;;5028956;28;20225;-86
2022/03/07 12:24:59;;;;;;;4.10;3.63;;;;;;;;;;5013389;28;20214;-86
2022/03/07 12:27:27;;;;;;;3.43;3.20;;;;;;;;;;5017872;28;20686;-86
2022/03/07 12:29:54;;;;;;;3.70;3.40;;;;;;;;;;5024010;28;20705;-87
2022/03/07 12:32:21;;;;;;;4.80;4.40;;;;;;;;;;5033021;28;20231;-86
2022/03/07 12:34:48;;;;;;;3.80;3.50;;;;;;;;;;5032759;28;20215;-85
2022/03/07 12:37:18;;;;;;;3.83;3.27;;;;;;;;;;5033204;28;20210;-84
2022/03/07 12:39:46;;;;;;;3.80;3.50;;;;;;;;;;5033823;28;20207;-85
2022/03/07 12:42:15;;;;;;;3.83;3.53;;;;;;;;;;5032881;28;20544;-86
2022/03/07 12:44:42;;;;;;;5.27;3.73;;;;;;;;;;5032615;28;20206;-86
2022/03/07 12:47:10;;;;;;;3.53;3.23;;;;;;;;;;5032339;28;20203;-85
2022/03/07 12:49:37;;;;;;;3.67;3.37;;;;;;;;;;5035317;28;20226;-86
2022/03/07 12:52:06;;;;;;;3.80;3.40;;;;;;;;;;5036605;28;20230;-85
2022/03/07 12:54:35;;;;;;;3.77;3.43;;;;;;;;;;5037897;28;20261;-86
2022/03/07 12:57:03;;;;;;;4.90;3.47;;;;;;;;;;5033191;28;20239;-85
2022/03/07 12:59:32;;;;;;;4.47;3.70;;;;;;;;;;5032680;28;20211;-86
2022/03/07 13:02:00;;;;;;;3.90;3.60;;;;;;;;;;5031901;28;20238;-86
2022/03/07 13:04:27;;;;;;;3.97;3.47;;;;;;;;;;5033047;28;20211;-86
2022/03/07 13:06:55;;;;;;;4.50;3.90;;;;;;;;;;5033142;28;20293;-86
2022/03/07 13:09:28;;;;;;;4.00;3.57;;;;;;;;;;5033518;28;20264;-86
2022/03/07 13:11:55;;;;;;;4.80;3.65;;;;;;;;;;5032978;28;20235;-85
2022/03/07 13:14:23;;;;;;;8.20;3.70;;;;;;;;;;5032399;28;20206;-85
2022/03/07 13:16:55;;;;;;;6.53;3.42;;;;;;;;;;5032013;28;20242;-86
2022/03/07 13:19:23;;;;;;;4.00;3.60;;;;;;;;;;5023630;28;20257;-86
2022/03/07 13:21:50;;;;;;;4.00;3.70;;;;;;;;;;5024818;28;20686;-86
2022/03/07 13:24:26;;;;;;;3.53;3.22;;;;;;;;;;5020600;28;20195;-85
2022/03/07 13:26:59;;;;;;;3.75;3.38;;;;;;;;;;5031930;28;20241;-86
2022/03/07 13:29:27;;;;;;;5.38;3.70;;;;;;;;;;5028170;28;20211;-86
2022/03/07 13:31:58;;;;;;;3.83;3.53;;;;;;;;;;5036022;28;20239;-86
2022/03/07 13:34:26;;;;;;;4.15;3.67;;;;;;;;;;5027376;28;20245;-86
2022/03/07 13:36:55;;;;;;;3.40;3.20;;;;;;;;;;5024946;28;20234;-86
2022/03/07 13:39:23;;;;;;;4.10;3.60;;;;;;;;;;5026877;28;20663;-86
2022/03/07 13:41:51;;;;;;;3.70;3.40;;;;;;;;;;5025226;28;20297;-86
2022/03/07 13:44:19;;;;;;;4.43;3.60;;;;;;;;;;5033979;28;20201;-86
2022/03/07 13:46:52;;;;;;;4.55;3.72;;;;;;;;;;5031734;28;20235;-86
2022/03/07 13:49:23;;;;;;;7.32;3.75;;;;;;;;;;5036219;28;20620;-86
2022/03/07 13:51:50;;;;;;;6.15;3.40;;;;;;;;;;5036524;28;20662;-86
2022/03/07 13:54:17;;;;;;;7.38;3.28;;;;;;;;;;5017526;28;20292;-86
2022/03/07 13:56:44;;;;;;;4.10;3.70;;;;;;;;;;5031261;28;20239;-86
2022/03/07 13:59:11;;;;;;;4.43;3.38;;;;;;;;;;5031759;28;20203;-86
2022/03/07 14:01:39;;;;;;;7.63;3.70;;;;;;;;;;5027185;28;20235;-87
2022/03/07 14:04:13;;;;;;;3.97;3.30;;;;;;;;;;5034369;28;20210;-87
2022/03/07 14:06:45;;;;;;;3.90;3.60;;;;;;;;;;5034091;28;20241;-86
2022/03/07 14:09:12;;;;;;;4.32;3.92;;;;;;;;;;5020921;28;20257;-86
2022/03/07 14:11:40;;;;;;;3.65;3.35;;;;;;;;;;5026189;28;20695;-87
2022/03/07 14:14:17;;;;;;;4.18;3.58;;;;;;;;;;5019645;28;20222;-86
2022/03/07 14:16:44;;;;;;;5.15;3.90;;;;;;;;;;5015491;28;20234;-86
2022/03/07 14:19:11;;;;;;;4.57;3.60;;;;;;;;;;5015923;28;20207;-86
2022/03/07 14:21:38;;;;;;;4.28;3.72;;;;;;;;;;5014902;28;20247;-85
2022/03/07 14:24:07;;;;;;;4.13;3.72;;;;;;;;;;5015662;28;20199;-87
2022/03/07 14:26:34;;;;;;;4.55;3.88;;;;;;;;;;5033620;28;20238;-86
2022/03/07 14:29:04;;;;;;;4.55;3.70;;;;;;;;;;5035291;28;20289;-86
2022/03/07 14:31:31;;;;;;;4.20;3.80;;;;;;;;;;5034334;28;20234;-86
2022/03/07 14:33:58;;;;;;;3.88;3.58;;;;;;;;;;5034577;28;20211;-86
2022/03/07 14:36:25;;;;;;;6.57;3.45;;;;;;;;;;5035721;28;20238;-86
2022/03/07 14:38:52;;;;;;;4.05;3.72;;;;;;;;;;5034497;28;20202;-86
2022/03/07 14:41:21;;;;;;;4.47;4.07;;;;;;;;;;5032979;28;20242;-85
2022/03/07 14:43:48;;;;;;;4.05;3.65;;;;;;;;;;5033722;28;20788;-84
2022/03/07 14:46:15;;;;;;;4.32;3.97;;;;;;;;;;5033806;28;20285;-84